Terminal Aerodrome Forecast
Issued by NWS

Home | Current Version | Previous Version | Graphics & Text | Print | Product List | Glossary On
Versions: 1 2 3 4 5 6 7 8 9 10 11 12 13 14 15 16 17 18 19 20 21 22 23 24 25 26 27 28 29 30 31 32 33 34 35 36
620
FTUS43 KGRB 281630 AAA
TAFATW
TAF AMD
KATW 281630Z 2817/2912 24008G15KT P6SM BKN029
      TEMPO 2817/2819 SCT030 SCT070
     FM281900 25007KT P6SM SCT030 BKN070
     FM282300 33005KT P6SM BKN050
     FM290500 01008KT P6SM BKN100=

USA.gov is the U.S. government's official web portal to all federal, state and local government web resources and services.